Pagrindinis puslapis
METAR-TAF:

METAR-TAF

Oro uostai :

Beaver Creek, Jukonas, Kanada

platuma: 62-25N, ilguma: 140-52W, Aukštis: 649 m

Dabartinis oras

Ataskaita buvo paskelbta 12 valandos ir 7 minutes, ne 23:00 UTC
Vėjas 2 kt iš Šiaurės
Temperatūra -21°C
Drėgmė 70%
Slėgis 1013 hPa
Matomumas: 24.1 km
Apsiniaukę ne aukštis 5000 ft
sniegas

METAR: CYXQ 252300Z 35002KT 15SM -SN OVC050 M21/M25 A2991 RMK SC8 /TR CM/TR MWE/LAST STFD OBS/NXT 261700Z/ SLP217

Laikas: 03:07 (11:07 UTC)


TAF: trūkstamas

Orai ataskaitas ir orų prognozės (METAR, TAF).

turimą stotys yra geltonos ir raudonos taškus žemėlapyje.

Perkelti pele per norėdami pamatyti stoties vardą.

Tada spustelėkite, norėdami matyti oro stebėjimo ir prognozės.

Norėdami pakeisti žemėlapį: spustelėkite ant žalios mygtukų su juodo kryžiaus žemyn,; žalią mygtuką su brūkšneliu, jei norite nutolinti; arba žalių rodyklių gretimoms žemėlapius.


METAR-TAF: